METAR AND TAF INFORMATION
METAR FOR NSFA
NSFA 130900Z 00000KT 9999 FEW027 26/25 Q1012
NSFA 130800Z 00000KT 9999 FEW026 SCT300 27/26 Q1012
NSFA 130700Z 00000KT 9999 FEW026 SCT300 27/26 Q1011

TAF NSFA 130515Z 1306/1406 04010KT 9999 FEW020 SCT040 BKN100
PROB40
TEMPO 1306/1308 5000 TSRA FEW018CB
PROB40
TEMPO 1402/1406 5000 TSRA FEW018CB

 AIRPORT MAP

 RUNWAY INFORMATION
Runway 08 Runway length 9843 ft Runway width 148 ft
Runway elevation 58 ft Runway displaced threshold 0 ft Runway heading 89
Runway 26 Runway length 9843 ft Runway width 148 ft
Runway elevation 9 ft Runway displaced threshold 0 ft Runway heading 269

 AIRPORT FREQUENCIES
Type APP Name APP Frequency 118.1 MHZ
Type APP Name APP Frequency 655.3 MHZ
Type APP Name APP Frequency 1790.4 MHZ
Type INFO Name RDO Frequency 118.1 MHZ
Type INFO Name RDO Frequency 655.3 MHZ
Type INFO Name RDO Frequency 1790.4 MHZ
Type TWR Name TWR Frequency 118.1 MHZ
Type TWR Name TWR Frequency 655.3 MHZ
Type TWR Name TWR Frequency 1790.4 MHZ

 AIRPORT NEAR NAVIGATION AIDS
Type VOR-DME Name Faleolo Frequency 113900 KHZ
Type NDB Name Faleolo Frequency 270 KHZ

-